Flight Track Log - Related Links

Times and Time Zones

All times are in EDT time to prevent confusion due to time zone crossing. See the N934DL flight status page for this flight to view local times or setup timezone preferences in your user account.

Time Position Orientation Groundspeed Altitude Reporting Facility
EDT Latitude Longitude Course Direction KTS MPH feet Rate Location/Type
Sat 11:48:34 AM 33.6333 -84.4500 270° West 148 170 2,300  Level Atlanta TRACON
Sat 11:49:34 AM 33.6333 -84.5167 270° West 240 276 4,000 2,544 Climbing Atlanta TRACON
Sat 11:50:39 AM 33.6333 -84.6167 270° West 264 304 7,600 3,025 Climbing Atlanta TRACON
Sat 11:51:33 AM 33.6000 -84.6833 239° Southwest 274 315 10,000 986 Climbing Atlanta TRACON
Sat 11:53:05 AM 33.4753 -84.6914 183° South 339 390 10,000  Level Atlanta Center
Sat 11:54:05 AM 33.3689 -84.6681 170° South 382 440 10,000 1,100 Level Atlanta Center
Sat 11:55:05 AM 33.2711 -84.6053 152° Southeast 392 451 12,200 2,400 Climbing Atlanta Center
Sat 11:56:05 AM 33.1628 -84.5625 162° South 404 465 14,800 2,500 Climbing Atlanta Center
Sat 11:57:05 AM 33.0397 -84.5394 171° South 409 471 17,200 2,150 Climbing Atlanta Center
Sat 11:58:05 AM 32.9228 -84.5214 173° South 409 471 19,100 2,150 Climbing Atlanta Center
Sat 11:59:05 AM 32.8061 -84.5008 172° South 426 490 21,500 1,950 Climbing Atlanta Center
Sat 12:00:05 PM 32.7081 -84.4856 173° South 420 483 23,000 1,200 Climbing Atlanta Center
Sat 12:01:05 PM 32.5953 -84.4653 171° South 409 471 23,900 1,400 Climbing Atlanta Center
Sat 12:02:05 PM 32.4806 -84.4450 172° South 409 471 25,800 1,550 Climbing Atlanta Center
Sat 12:03:05 PM 32.3658 -84.4225 171° South 414 476 27,000 600 Climbing Atlanta Center
Sat 12:04:05 PM 32.2533 -84.4122 176° South 414 476 27,000  Level Atlanta Center
Sat 12:05:05 PM 32.1406 -84.4092 179° South 408 470 27,000  Level Atlanta Center
Sat 12:06:05 PM 32.0278 -84.4064 179° South 403 464 27,000  Level Atlanta Center
Sat 12:06:44 PM 31.9425 -84.4008 177° South 403 464 27,000  Level Jacksonville Center
Sat 12:07:44 PM 31.8319 -84.3989 179° South 396 456 27,000  Level Jacksonville Center
Sat 12:08:43 PM 31.7214 -84.3972 179° South 396 456 27,000  Level Jacksonville Center
Sat 12:09:43 PM 31.6086 -84.3928 178° South 402 463 27,000  Level Jacksonville Center
Sat 12:10:44 PM 31.4958 -84.3911 179° South 402 463 27,000  Level Jacksonville Center
Sat 12:11:43 PM 31.3831 -84.3867 178° South 402 463 27,000  Level Jacksonville Center
Sat 12:12:44 PM 31.2725 -84.3850 179° South 402 463 27,000  Level Jacksonville Center
Sat 12:13:44 PM 31.1619 -84.3808 178° South 402 463 27,000  Level Jacksonville Center
Sat 12:14:43 PM 31.0597 -84.3792 179° South 392 451 27,000  Level Jacksonville Center
Sat 12:15:44 PM 30.9572 -84.3775 179° South 380 437 27,000  Level Jacksonville Center
Sat 12:16:44 PM 30.8569 -84.3783 180° South 374 430 27,000  Level Jacksonville Center
Sat 12:17:43 PM 30.7547 -84.3744 178° South 369 425 27,000  Level Jacksonville Center
Sat 12:18:44 PM 30.6506 -84.3703 178° South 369 425 27,000  Level Jacksonville Center
Sat 12:19:44 PM 30.5481 -84.3689 179° South 369 425 27,000  Level Jacksonville Center
Sat 12:20:44 PM 30.4569 -84.3072 150° Southeast 369 425 27,000  Level Jacksonville Center
Sat 12:21:44 PM 30.3575 -84.2431 151° Southeast 392 451 27,000  Level Jacksonville Center
Sat 12:22:44 PM 30.2517 -84.1719 150° Southeast 401 461 27,000  Level Jacksonville Center
Sat 12:23:44 PM 30.1542 -84.1081 150° Southeast 401 461 27,000  Level Jacksonville Center
Sat 12:24:44 PM 30.0547 -84.0444 151° Southeast 407 468 27,000  Level Jacksonville Center
Sat 12:25:44 PM 29.9569 -83.9808 151° Southeast 407 468 27,000  Level Jacksonville Center
Sat 12:26:43 PM 29.8594 -83.9175 151° Southeast 407 468 27,000  Level Jacksonville Center
Sat 12:27:44 PM 29.7619 -83.8544 151° Southeast 407 468 27,000  Level Jacksonville Center
Sat 12:28:44 PM 29.6619 -83.7911 151° Southeast 407 468 27,000  Level Jacksonville Center
Sat 12:29:44 PM 29.5644 -83.7283 151° Southeast 412 474 27,000  Level Jacksonville Center
Sat 12:30:44 PM 29.4644 -83.6653 151° Southeast 412 474 27,000 -50 Level Jacksonville Center
Sat 12:31:44 PM 29.3647 -83.6003 150° Southeast 412 474 26,900 -600 Descending Jacksonville Center
Sat 12:32:44 PM 29.2647 -83.5425 153° Southeast 412 474 25,800 -950 Descending Jacksonville Center
Sat 12:33:44 PM 29.1669 -83.4894 155° Southeast 401 461 25,000 -403 Descending Jacksonville Center
Sat 12:34:43 PM 29.0650 -83.4367 156° South 401 461 25,000  Level Jacksonville Center
Sat 12:35:43 PM 28.9669 -83.3839 155° Southeast 401 461 25,000  Level Jacksonville Center
Sat 12:36:43 PM 28.8733 -83.3358 156° South 401 461 25,000 -50 Level Jacksonville Center
Sat 12:37:43 PM 28.7669 -83.2928 160° South 401 461 24,900 -1,484 Descending Jacksonville Center
Sat 12:39:53 PM 28.5167 -83.2000 162° South 435 501 20,300 -2,179 Descending Tampa TRACON
Sat 12:40:53 PM 28.4167 -83.1000 139° Southeast 466 536 18,000 -1,900 Descending Tampa TRACON
Sat 12:41:53 PM 28.3167 -83.0667 164° South 402 463 16,500 -1,750 Descending Tampa TRACON
Sat 12:42:53 PM 28.2167 -83.0500 172° South 369 425 14,500 -2,000 Descending Tampa TRACON
Sat 12:43:53 PM 28.1167 -83.0333 172° South 337 388 12,500 -1,400 Descending Tampa TRACON
Sat 12:44:53 PM 28.0333 -83.0167 170° South 331 381 11,700 -850 Descending Tampa TRACON
Sat 12:45:53 PM 27.9333 -83.0167 180° South 329 379 10,800 -714 Descending Tampa TRACON
Sat 12:46:59 PM 27.8333 -83.0000 172° South 320 368 10,200 -810 Descending Tampa TRACON
Sat 12:47:59 PM 27.7667 -82.9833 168° South 288 331 9,100 -1,200 Descending Tampa TRACON
Sat 12:48:59 PM 27.7167 -82.9167 130° Southeast 292 336 7,800 -1,150 Descending Tampa TRACON
Sat 12:49:59 PM 27.6667 -82.8500 130° Southeast 304 350 6,800 -895 Descending Tampa TRACON
Sat 12:50:53 PM 27.6167 -82.7667 124° Southeast 295 339 6,100 -800 Descending Tampa TRACON
Sat 12:51:59 PM 27.5667 -82.6833 124° Southeast 297 342 5,200 -667 Descending Tampa TRACON
Sat 12:52:59 PM 27.5333 -82.6167 119° Southeast 284 327 4,700 -947 Descending Tampa TRACON
Sat 12:53:53 PM 27.4833 -82.5500 130° Southeast 278 320 3,400 -842 Descending Tampa TRACON
Sat 12:54:53 PM 27.4500 -82.4833 119° Southeast 248 285 3,100 -150 Descending Tampa TRACON
Sat 12:55:53 PM 27.4000 -82.4333 138° Southeast 200 230 3,100 -595 Level Tampa TRACON
Sat 12:56:54 PM 27.3667 -82.4500 204° Southwest 183 211 1,900 -694 Descending Tampa TRACON
Sat 12:57:54 PM 27.3333 -82.5000 233° Southwest 160 184 1,700 -600 Descending Tampa TRACON
Sat 12:58:54 PM 27.3667 -82.5333 318° Northwest 149 171 700 -1,000 Descending Tampa TRACON
Sat 01:00:00 PM 27.3833 -82.5500 318° Northwest  Level FlightAware
Sat 01:07:00 PM 27.3954 -82.5544 318° Northwest  Level Estimated
Sat 01:08:00 PM 27.3954 -82.5544 318° Northwest  Level Estimated

Login

Don't have an account? Register now (free) for customized features, flight alerts, and more!